createdAt,value
2023-05-12T00:00:50.225Z,36.32
2023-05-12T00:03:19.449Z,35.95
2023-05-12T00:05:45.900Z,35.87
2023-05-12T00:08:13.143Z,36.32
2023-05-12T00:10:39.561Z,36.38
2023-05-12T00:13:05.950Z,36.80
2023-05-12T00:15:32.380Z,36.13
2023-05-12T00:17:58.846Z,35.91
2023-05-12T00:20:28.000Z,35.72
2023-05-12T00:22:54.397Z,35.78
2023-05-12T00:25:21.604Z,36.47
2023-05-12T00:27:48.880Z,35.98
2023-05-12T00:30:15.348Z,36.80
2023-05-12T00:32:41.781Z,36.14
2023-05-12T00:35:09.029Z,36.63
2023-05-12T00:37:35.357Z,35.65
2023-05-12T00:40:02.602Z,36.40
2023-05-12T00:42:29.029Z,35.63
2023-05-12T00:44:56.253Z,35.84
2023-05-12T00:47:23.535Z,35.38
2023-05-12T00:49:49.946Z,35.65
2023-05-12T00:52:16.331Z,35.57
2023-05-12T00:54:42.741Z,35.58
2023-05-12T00:57:09.099Z,35.78
2023-05-12T00:59:35.442Z,35.81
2023-05-12T01:02:02.690Z,36.35
2023-05-12T01:04:29.920Z,35.86
2023-05-12T01:06:57.157Z,35.84
2023-05-12T01:09:23.711Z,35.77
2023-05-12T01:11:50.958Z,36.26
2023-05-12T01:14:17.341Z,35.46
2023-05-12T01:16:43.748Z,36.31
2023-05-12T01:19:10.135Z,35.67
2023-05-12T01:21:37.355Z,35.70
2023-05-12T01:24:03.687Z,35.54
2023-05-12T01:26:30.027Z,35.70
2023-05-12T01:28:59.141Z,36.35
2023-05-12T01:31:25.605Z,35.74
2023-05-12T01:33:51.987Z,35.59
2023-05-12T01:36:18.348Z,35.75
2023-05-12T01:38:44.728Z,35.83
2023-05-12T01:41:11.112Z,35.67
2023-05-12T01:43:37.461Z,35.82
2023-05-12T01:46:03.833Z,36.21
2023-05-12T01:48:31.074Z,35.57
2023-05-12T01:50:57.407Z,36.49
2023-05-12T01:53:23.801Z,36.16
2023-05-12T01:55:50.145Z,35.82
2023-05-12T01:58:16.493Z,35.52
2023-05-12T02:00:44.741Z,35.54
2023-05-12T02:03:11.206Z,35.18
2023-05-12T02:05:37.653Z,35.55
2023-05-12T02:08:04.040Z,35.67
2023-05-12T02:10:30.377Z,35.55
2023-05-12T02:12:56.811Z,35.54
2023-05-12T02:15:23.205Z,35.89
2023-05-12T02:17:50.489Z,35.94
2023-05-12T02:20:17.893Z,36.04
2023-05-12T02:22:44.402Z,35.92
2023-05-12T02:25:11.605Z,36.10
2023-05-12T02:27:38.837Z,36.03
2023-05-12T02:30:05.191Z,35.97
2023-05-12T02:32:31.617Z,35.84
2023-05-12T02:34:58.017Z,36.12
2023-05-12T02:37:24.365Z,36.04
2023-05-12T02:39:50.736Z,35.63
2023-05-12T02:42:17.965Z,35.96
2023-05-12T02:44:44.323Z,35.95
2023-05-12T02:47:11.558Z,36.06
2023-05-12T02:49:37.891Z,36.25
2023-05-12T02:52:04.265Z,36.22
2023-05-12T02:54:30.611Z,35.88
2023-05-12T02:56:56.952Z,36.10
2023-05-12T02:59:23.327Z,35.86
2023-05-12T03:01:49.678Z,36.82
2023-05-12T03:04:16.934Z,36.19
2023-05-12T03:06:43.355Z,36.58
2023-05-12T03:09:10.588Z,36.46
2023-05-12T03:11:37.035Z,36.71
2023-05-12T03:14:03.389Z,36.22
2023-05-12T03:16:30.658Z,36.38
2023-05-12T03:18:57.098Z,36.20
2023-05-12T03:21:23.480Z,36.20
2023-05-12T03:23:49.837Z,36.20
2023-05-12T03:26:17.052Z,36.44
2023-05-12T03:28:43.406Z,36.33
2023-05-12T03:31:09.782Z,36.51
2023-05-12T03:33:36.151Z,36.44
2023-05-12T03:36:02.537Z,36.28
2023-05-12T03:38:28.936Z,36.46
2023-05-12T03:40:55.309Z,36.49
2023-05-12T03:43:22.533Z,36.18
2023-05-12T03:45:48.869Z,36.78
2023-05-12T03:48:15.412Z,36.46
2023-05-12T03:50:41.857Z,36.72
2023-05-12T03:53:09.059Z,36.57
2023-05-12T03:55:36.290Z,36.72
2023-05-12T03:58:02.689Z,36.70
2023-05-12T04:00:29.047Z,37.20
2023-05-12T04:02:55.577Z,37.04
2023-05-12T04:05:22.884Z,36.77
2023-05-12T04:07:49.221Z,36.83
2023-05-12T04:10:15.580Z,36.98
2023-05-12T04:12:42.780Z,36.92
2023-05-12T04:15:09.500Z,37.22
2023-05-12T04:17:35.873Z,37.01
2023-05-12T04:20:02.199Z,37.18
2023-05-12T04:22:28.548Z,37.16
2023-05-12T04:24:54.886Z,37.15
2023-05-12T04:27:21.295Z,37.35
2023-05-12T04:29:47.645Z,37.25
2023-05-12T04:32:14.929Z,37.20
2023-05-12T04:34:41.312Z,36.99
2023-05-12T04:37:07.647Z,37.14
2023-05-12T04:39:33.964Z,37.27
2023-05-12T04:42:00.300Z,37.52
2023-05-12T04:44:26.638Z,37.08
2023-05-12T04:46:53.856Z,37.26
2023-05-12T04:49:21.065Z,36.74
2023-05-12T04:51:48.278Z,37.07
2023-05-12T04:54:14.641Z,37.20
2023-05-12T04:56:40.978Z,37.31
2023-05-12T04:59:07.301Z,37.67
2023-05-12T05:01:34.701Z,37.49
2023-05-12T05:04:01.264Z,37.55
2023-05-12T05:06:27.705Z,37.40
2023-05-12T05:08:55.076Z,37.34
2023-05-12T05:11:21.537Z,37.17
2023-05-12T05:13:47.986Z,36.72
2023-05-12T05:16:14.526Z,36.89
2023-05-12T05:18:41.035Z,36.73
2023-05-12T05:21:08.625Z,37.04
2023-05-12T05:23:35.166Z,36.96
2023-05-12T05:26:02.476Z,36.81
2023-05-12T05:28:28.900Z,37.07
2023-05-12T05:30:55.364Z,36.96
2023-05-12T05:33:21.852Z,37.04
2023-05-12T05:35:48.285Z,37.03
2023-05-12T05:38:15.580Z,36.77
2023-05-12T05:40:53.114Z,37.29
2023-05-12T05:43:22.710Z,36.53
2023-05-12T05:45:49.189Z,37.17
2023-05-12T05:48:15.661Z,36.71
2023-05-12T05:50:42.149Z,37.24
2023-05-12T05:53:11.344Z,36.93
2023-05-12T05:55:38.594Z,37.00
2023-05-12T05:58:05.023Z,36.94
2023-05-12T06:00:32.344Z,36.84
2023-05-12T06:02:59.773Z,37.16
2023-05-12T06:05:27.216Z,36.99
2023-05-12T06:07:53.633Z,36.97
2023-05-12T06:10:21.153Z,37.29
2023-05-12T06:12:47.811Z,36.85
2023-05-12T06:15:14.292Z,37.05
2023-05-12T06:17:41.584Z,36.96
2023-05-12T06:20:08.871Z,37.00
2023-05-12T06:22:35.301Z,37.19
2023-05-12T06:25:04.530Z,37.01
2023-05-12T06:27:31.777Z,36.94
2023-05-12T06:29:59.146Z,36.96
2023-05-12T06:32:25.602Z,37.10
2023-05-12T06:34:52.983Z,36.61
2023-05-12T06:37:19.487Z,37.47
2023-05-12T06:39:46.171Z,36.75
2023-05-12T06:42:14.476Z,37.04
2023-05-12T06:44:42.268Z,36.89
2023-05-12T06:47:11.883Z,36.68
2023-05-12T06:49:38.386Z,36.83
2023-05-12T06:52:05.936Z,37.07
2023-05-12T06:54:32.474Z,37.24
2023-05-12T06:56:58.969Z,36.83
2023-05-12T06:59:25.409Z,37.16
2023-05-12T07:01:51.854Z,37.08
2023-05-12T07:04:18.304Z,36.56
2023-05-12T07:06:44.797Z,36.51
2023-05-12T07:09:11.412Z,36.37
2023-05-12T07:11:37.883Z,36.95
2023-05-12T07:14:04.338Z,36.55
2023-05-12T07:16:34.358Z,36.67
2023-05-12T07:19:00.854Z,36.70
2023-05-12T07:21:27.278Z,36.31
2023-05-12T07:23:53.694Z,36.46
2023-05-12T07:26:20.173Z,35.97
2023-05-12T07:28:46.606Z,35.88
2023-05-12T07:31:13.018Z,35.97
2023-05-12T07:33:40.311Z,36.18
2023-05-12T07:36:06.724Z,36.12
2023-05-12T07:38:33.110Z,36.16
2023-05-12T07:40:59.523Z,35.83
2023-05-12T07:43:25.968Z,36.26
2023-05-12T07:45:53.360Z,35.56
2023-05-12T07:48:20.763Z,35.65
2023-05-12T07:50:48.100Z,35.63
2023-05-12T07:53:15.480Z,35.17
2023-05-12T07:55:42.783Z,35.15
2023-05-12T07:58:10.018Z,34.78
2023-05-12T08:00:37.270Z,34.96
2023-05-12T08:03:04.592Z,35.03
2023-05-12T08:05:31.054Z,34.50
2023-05-12T08:07:58.429Z,34.78
2023-05-12T08:10:24.916Z,34.73
2023-05-12T08:12:52.213Z,34.37
2023-05-12T08:15:21.664Z,34.85
2023-05-12T08:17:48.411Z,34.53
2023-05-12T08:20:15.848Z,34.09
2023-05-12T08:22:43.086Z,33.95
2023-05-12T08:25:17.073Z,33.79
2023-05-12T08:27:43.564Z,34.06
2023-05-12T08:30:09.988Z,33.76
2023-05-12T08:32:36.383Z,33.54
2023-05-12T08:35:03.682Z,33.22
2023-05-12T08:37:31.340Z,33.73
2023-05-12T08:39:58.905Z,33.11
2023-05-12T08:42:25.348Z,33.74
2023-05-12T08:44:54.514Z,32.81
2023-05-12T08:47:20.872Z,32.66
2023-05-12T08:49:49.386Z,33.35
2023-05-12T08:52:18.426Z,33.34
2023-05-12T08:54:55.024Z,33.08
2023-05-12T08:57:24.517Z,33.09
2023-05-12T08:59:51.780Z,32.71
2023-05-12T09:02:18.239Z,32.62
2023-05-12T09:04:45.626Z,32.68
2023-05-12T09:07:12.912Z,32.71
2023-05-12T09:09:39.272Z,32.94
2023-05-12T09:12:05.664Z,32.44
2023-05-12T09:14:32.040Z,32.60
2023-05-12T09:16:58.369Z,32.29
2023-05-12T09:19:24.695Z,32.67
2023-05-12T09:21:51.044Z,32.82
2023-05-12T09:24:18.247Z,32.66
2023-05-12T09:26:44.578Z,32.40
2023-05-12T09:29:15.810Z,32.89
2023-05-12T09:31:47.580Z,32.32
2023-05-12T09:34:13.951Z,31.91
2023-05-12T09:36:40.346Z,32.53
2023-05-12T09:39:06.727Z,32.27
2023-05-12T09:41:33.059Z,32.58
2023-05-12T09:43:59.404Z,32.48
2023-05-12T09:46:25.805Z,32.90
2023-05-12T09:48:52.268Z,32.98
2023-05-12T09:51:18.677Z,33.47
2023-05-12T09:53:45.060Z,33.22
2023-05-12T09:56:12.313Z,33.49
2023-05-12T09:58:38.767Z,33.54
2023-05-12T10:01:21.772Z,33.59
2023-05-12T10:03:52.211Z,33.43
2023-05-12T10:06:19.456Z,33.67
2023-05-12T10:08:45.882Z,33.75
2023-05-12T10:11:12.303Z,33.59
2023-05-12T10:13:39.673Z,33.27
2023-05-12T10:16:07.080Z,33.63
2023-05-12T10:18:33.514Z,33.50
2023-05-12T10:21:00.868Z,34.02
2023-05-12T10:23:27.293Z,31.71
2023-05-12T10:25:53.725Z,30.43
2023-05-12T10:28:20.178Z,31.11
2023-05-12T10:30:46.595Z,30.03
2023-05-12T10:33:15.230Z,29.39
2023-05-12T10:35:41.569Z,30.23
2023-05-12T10:38:07.936Z,29.06
2023-05-12T10:40:34.304Z,30.49
2023-05-12T10:43:00.669Z,30.42
2023-05-12T10:45:26.997Z,31.14
2023-05-12T10:47:54.302Z,30.36
2023-05-12T10:50:20.667Z,30.06
2023-05-12T10:52:47.000Z,29.52
2023-05-12T10:55:16.231Z,29.64
2023-05-12T10:57:42.934Z,30.42
2023-05-12T11:00:10.789Z,29.99
2023-05-12T11:02:38.593Z,29.78
2023-05-12T11:05:06.911Z,29.33
2023-05-12T11:07:34.695Z,30.58
2023-05-12T11:10:02.895Z,29.67
2023-05-12T11:12:31.812Z,30.42
2023-05-12T11:14:58.200Z,30.68
2023-05-12T11:17:26.554Z,30.07
2023-05-12T11:19:52.972Z,29.88
2023-05-12T11:24:45.652Z,30.54
2023-05-12T11:27:12.098Z,30.69
2023-05-12T11:29:38.512Z,29.15
2023-05-12T11:32:05.862Z,30.14
2023-05-12T11:34:33.272Z,30.55
2023-05-12T11:37:00.506Z,29.56
2023-05-12T11:39:26.889Z,30.06
2023-05-12T11:42:02.117Z,30.35
2023-05-12T11:44:35.829Z,30.83
2023-05-12T11:47:02.176Z,29.87
2023-05-12T11:49:28.484Z,30.85
2023-05-12T11:51:54.849Z,30.95
2023-05-12T11:54:21.182Z,29.38
2023-05-12T11:56:47.583Z,29.64
2023-05-12T11:59:13.924Z,29.41
2023-05-12T12:01:40.270Z,29.06
2023-05-12T12:04:06.731Z,30.12
2023-05-12T12:06:33.158Z,29.49
2023-05-12T12:08:59.501Z,29.64
2023-05-12T12:11:25.835Z,29.31
2023-05-12T12:13:52.186Z,30.05
2023-05-12T12:16:18.597Z,30.35
2023-05-12T12:18:45.064Z,30.39
2023-05-12T12:21:11.449Z,30.16
2023-05-12T12:23:49.978Z,30.65
2023-05-12T12:26:17.447Z,30.62
2023-05-12T12:28:43.816Z,30.57
2023-05-12T12:31:11.070Z,31.06
2023-05-12T12:33:37.471Z,31.49
2023-05-12T12:36:03.818Z,31.54
2023-05-12T12:38:30.155Z,31.53
2023-05-12T12:40:56.463Z,31.39
2023-05-12T12:43:22.943Z,32.44
2023-05-12T12:45:49.273Z,32.32
2023-05-12T12:48:16.475Z,32.09
2023-05-12T12:50:42.840Z,32.40
2023-05-12T12:53:09.199Z,32.23
2023-05-12T12:55:35.564Z,32.05
2023-05-12T12:58:01.909Z,32.58
2023-05-12T13:00:28.239Z,32.33
2023-05-12T13:02:54.636Z,32.20
2023-05-12T13:05:21.290Z,32.06
2023-05-12T13:07:47.861Z,32.06
2023-05-12T13:10:15.075Z,31.40
2023-05-12T13:12:41.418Z,31.48
2023-05-12T13:15:07.746Z,30.16
2023-05-12T13:17:34.099Z,30.95
2023-05-12T13:20:00.457Z,30.63
2023-05-12T13:22:26.790Z,30.44
2023-05-12T13:24:53.121Z,30.20
2023-05-12T13:27:19.470Z,31.04
2023-05-12T13:29:45.777Z,30.78
2023-05-12T13:32:12.998Z,30.76
2023-05-12T13:34:39.377Z,30.44
2023-05-12T13:37:06.618Z,29.56
2023-05-12T13:39:33.864Z,30.34
2023-05-12T13:42:00.201Z,30.57
2023-05-12T13:44:26.575Z,30.67
2023-05-12T13:46:52.913Z,30.34
2023-05-12T13:49:19.289Z,30.57
2023-05-12T13:51:45.645Z,29.96
2023-05-12T13:54:12.872Z,29.48
2023-05-12T13:56:39.230Z,28.88
2023-05-12T13:59:05.616Z,29.68
2023-05-12T14:01:32.000Z,30.22
2023-05-12T14:03:58.391Z,29.45
2023-05-12T14:06:24.756Z,29.82
2023-05-12T14:08:51.094Z,29.98
2023-05-12T14:11:18.330Z,29.16
2023-05-12T14:13:44.660Z,29.57
2023-05-12T14:16:11.012Z,30.19
2023-05-12T14:18:37.419Z,30.09
2023-05-12T14:21:03.799Z,29.90
2023-05-12T14:23:30.160Z,30.38
2023-05-12T14:25:56.537Z,29.57
2023-05-12T14:28:23.051Z,28.87
2023-05-12T14:30:49.510Z,29.69
2023-05-12T14:33:16.764Z,29.53
2023-05-12T14:35:44.774Z,29.89
2023-05-12T14:38:15.472Z,29.99
2023-05-12T14:40:41.843Z,29.27
2023-05-12T14:43:08.190Z,28.98
2023-05-12T14:45:34.589Z,30.01
2023-05-12T14:48:01.020Z,29.89
2023-05-12T14:50:28.306Z,29.68
2023-05-12T14:52:54.687Z,29.49
2023-05-12T14:55:23.806Z,29.44
2023-05-12T14:57:50.144Z,28.60
2023-05-12T15:00:16.508Z,29.47
2023-05-12T15:02:43.001Z,29.11
2023-05-12T15:05:09.484Z,29.82
2023-05-12T15:07:35.872Z,29.22
2023-05-12T15:10:02.339Z,29.47
2023-05-12T15:12:29.735Z,29.36
2023-05-12T15:14:57.159Z,29.84
2023-05-12T15:17:23.617Z,29.67
2023-05-12T15:19:51.026Z,29.86
2023-05-12T15:22:18.436Z,29.45
2023-05-12T15:24:44.897Z,29.81
2023-05-12T15:27:11.333Z,29.93
2023-05-12T15:29:37.788Z,29.35
2023-05-12T15:32:04.244Z,29.34
2023-05-12T15:34:31.521Z,29.46
2023-05-12T15:36:58.750Z,29.80
2023-05-12T15:39:25.970Z,29.50
2023-05-12T15:41:52.470Z,29.56
2023-05-12T15:44:18.941Z,29.38
2023-05-12T15:46:46.201Z,29.05
2023-05-12T15:49:12.665Z,29.52
2023-05-12T15:51:39.006Z,29.25
2023-05-12T15:54:06.990Z,28.90
2023-05-12T15:56:34.184Z,29.32
2023-05-12T15:59:00.587Z,29.70
2023-05-12T16:01:26.958Z,29.58
2023-05-12T16:03:53.404Z,29.38
2023-05-12T16:06:20.782Z,29.31
2023-05-12T16:08:48.030Z,28.18
2023-05-12T16:11:15.302Z,28.95
2023-05-12T16:13:41.796Z,28.70
2023-05-12T16:16:08.316Z,28.90
2023-05-12T16:18:34.821Z,28.91
2023-05-12T16:21:01.341Z,28.48
2023-05-12T16:23:27.813Z,28.74
2023-05-12T16:25:54.281Z,28.96
2023-05-12T16:28:21.536Z,28.30
2023-05-12T16:30:48.012Z,29.00
2023-05-12T16:33:14.484Z,28.15
2023-05-12T16:35:41.798Z,29.05
2023-05-12T16:38:09.057Z,28.47
2023-05-12T16:40:35.435Z,28.73
2023-05-12T16:43:02.961Z,28.72
2023-05-12T16:45:30.196Z,29.00
2023-05-12T16:47:57.431Z,28.46
2023-05-12T16:50:23.828Z,28.86
2023-05-12T16:52:50.644Z,28.44
2023-05-12T16:55:17.877Z,28.65
2023-05-12T16:57:44.257Z,28.48
2023-05-12T17:00:10.648Z,28.63
2023-05-12T17:02:37.091Z,28.73
2023-05-12T17:05:03.531Z,28.68
2023-05-12T17:07:29.905Z,28.80
2023-05-12T17:09:56.534Z,28.80
2023-05-12T17:12:22.905Z,28.90
2023-05-12T17:14:59.424Z,29.20
2023-05-12T17:17:31.015Z,28.81
2023-05-12T17:20:00.411Z,28.90
2023-05-12T17:22:27.837Z,28.78
2023-05-12T17:24:54.199Z,28.95
2023-05-12T17:27:21.480Z,28.71
2023-05-12T17:29:48.173Z,29.12
2023-05-12T17:32:15.462Z,29.55
2023-05-12T17:34:42.692Z,28.75
2023-05-12T17:37:09.956Z,29.36
2023-05-12T17:39:36.302Z,29.70
2023-05-12T17:42:02.661Z,29.02
2023-05-12T17:44:29.049Z,28.94
2023-05-12T17:46:55.492Z,29.01
2023-05-12T17:49:21.856Z,29.50
2023-05-12T17:51:48.251Z,29.12
2023-05-12T17:54:15.487Z,29.13
2023-05-12T17:56:41.856Z,29.32
2023-05-12T17:59:08.211Z,29.71
2023-05-12T18:01:34.594Z,29.68
2023-05-12T18:04:01.002Z,29.65
2023-05-12T18:06:27.450Z,29.98
2023-05-12T18:08:53.801Z,30.18
2023-05-12T18:11:21.053Z,30.18
2023-05-12T18:13:47.406Z,30.11
2023-05-12T18:16:25.226Z,30.16
2023-05-12T18:18:54.665Z,30.15
2023-05-12T18:21:21.069Z,30.25
2023-05-12T18:23:48.323Z,30.16
2023-05-12T18:26:14.692Z,30.42
2023-05-12T18:28:41.927Z,30.59
2023-05-12T18:31:15.959Z,30.43
2023-05-12T18:33:43.650Z,30.48
2023-05-12T18:36:11.304Z,30.44
2023-05-12T18:38:37.734Z,30.45
2023-05-12T18:41:04.994Z,30.70
2023-05-12T18:43:31.430Z,30.74
2023-05-12T18:45:58.804Z,30.64
2023-05-12T18:48:25.246Z,30.69
2023-05-12T18:50:51.666Z,30.85
2023-05-12T18:53:18.100Z,31.03
2023-05-12T18:55:46.444Z,31.14
2023-05-12T18:58:14.697Z,31.31
2023-05-12T19:00:43.866Z,31.64
2023-05-12T19:03:11.186Z,32.19
2023-05-12T19:05:40.536Z,32.39
2023-05-12T19:08:07.131Z,32.71
2023-05-12T19:10:33.558Z,32.71
2023-05-12T19:13:01.000Z,33.29
2023-05-12T19:15:28.366Z,33.36
2023-05-12T19:17:54.858Z,33.37
2023-05-12T19:20:23.388Z,33.49
2023-05-12T19:22:50.650Z,33.63
2023-05-12T19:25:18.131Z,33.76
2023-05-12T19:27:44.649Z,34.44
2023-05-12T19:30:11.103Z,34.46
2023-05-12T19:32:37.740Z,34.88
2023-05-12T19:35:04.206Z,35.21
2023-05-12T19:37:30.687Z,34.96
2023-05-12T19:39:57.941Z,35.04
2023-05-12T19:42:26.252Z,35.59
2023-05-12T19:44:52.735Z,35.62
2023-05-12T19:47:19.200Z,35.60
2023-05-12T19:49:45.637Z,35.14
2023-05-12T19:52:12.131Z,35.46
2023-05-12T19:54:39.373Z,35.73
2023-05-12T19:57:05.842Z,36.72
2023-05-12T19:59:32.323Z,36.43
2023-05-12T20:01:58.797Z,36.26
2023-05-12T20:04:26.168Z,36.43
2023-05-12T20:06:53.432Z,36.27
2023-05-12T20:09:19.843Z,36.61
2023-05-12T20:11:46.305Z,36.56
2023-05-12T20:14:12.761Z,37.17
2023-05-12T20:16:40.164Z,36.85
2023-05-12T20:19:07.620Z,37.08
2023-05-12T20:21:34.201Z,36.65
2023-05-12T20:24:01.544Z,36.36
2023-05-12T20:26:28.020Z,36.70
2023-05-12T20:28:54.590Z,36.97
2023-05-12T20:31:21.086Z,36.42
2023-05-12T20:33:48.426Z,36.36
2023-05-12T20:36:15.760Z,36.39
2023-05-12T20:38:42.174Z,36.56
2023-05-12T20:41:08.692Z,36.36
2023-05-12T20:43:35.174Z,36.47
2023-05-12T20:46:01.716Z,36.62
2023-05-12T20:48:28.209Z,36.27
2023-05-12T20:50:54.673Z,36.68
2023-05-12T20:53:22.043Z,37.15
2023-05-12T20:55:49.424Z,36.63
2023-05-12T20:58:15.901Z,36.84
2023-05-12T21:00:42.305Z,37.80
2023-05-12T21:03:08.804Z,36.84
2023-05-12T21:05:36.206Z,37.08
2023-05-12T21:08:02.688Z,36.64
2023-05-12T21:10:30.295Z,37.33
2023-05-12T21:12:56.718Z,36.89
2023-05-12T21:15:25.986Z,37.18
2023-05-12T21:17:53.916Z,36.84
2023-05-12T21:20:20.491Z,37.49
2023-05-12T21:22:47.234Z,37.27
2023-05-12T21:25:13.747Z,36.70
2023-05-12T21:27:40.253Z,36.93
2023-05-12T21:30:07.488Z,36.94
2023-05-12T21:32:33.966Z,37.16
2023-05-12T21:35:00.536Z,36.85
2023-05-12T21:37:27.833Z,37.43
2023-05-12T21:42:21.548Z,37.14
2023-05-12T21:44:48.058Z,37.08
2023-05-12T21:47:14.511Z,37.58
2023-05-12T21:49:41.753Z,37.37
2023-05-12T21:52:10.970Z,37.33
2023-05-12T21:54:38.264Z,37.08
2023-05-12T21:57:04.732Z,36.88
2023-05-12T21:59:31.223Z,37.35
2023-05-12T22:01:58.852Z,36.95
2023-05-12T22:04:25.436Z,37.16
2023-05-12T22:06:51.918Z,36.97
2023-05-12T22:09:19.297Z,37.16
2023-05-12T22:11:46.700Z,37.62
2023-05-12T22:14:13.163Z,37.97
2023-05-12T22:16:42.345Z,37.42
2023-05-12T22:19:09.278Z,37.31
2023-05-12T22:21:36.761Z,37.56
2023-05-12T22:24:03.231Z,37.12
2023-05-12T22:26:29.630Z,37.32
2023-05-12T22:28:56.973Z,37.80
2023-05-12T22:31:23.527Z,37.85
2023-05-12T22:33:50.834Z,37.60
2023-05-12T22:36:18.188Z,38.08
2023-05-12T22:38:44.668Z,37.59
2023-05-12T22:41:11.988Z,37.74
2023-05-12T22:43:39.322Z,37.95
2023-05-12T22:48:38.670Z,37.87
2023-05-12T22:51:06.635Z,38.25
2023-05-12T22:53:33.017Z,37.85
2023-05-12T22:55:59.445Z,37.81
2023-05-12T22:58:25.904Z,37.59
2023-05-12T23:00:52.467Z,37.59
2023-05-12T23:03:18.980Z,37.58
2023-05-12T23:05:46.310Z,37.73
2023-05-12T23:08:13.621Z,38.24
2023-05-12T23:10:40.037Z,37.42
2023-05-12T23:13:07.294Z,37.48
2023-05-12T23:15:34.618Z,37.28
2023-05-12T23:18:02.049Z,37.80
2023-05-12T23:20:29.447Z,37.69
2023-05-12T23:22:55.893Z,37.56
2023-05-12T23:25:23.188Z,37.70
2023-05-12T23:27:50.515Z,38.35
2023-05-12T23:30:16.952Z,37.57
2023-05-12T23:32:44.422Z,37.83
2023-05-12T23:35:10.904Z,37.93
2023-05-12T23:37:38.286Z,38.23
2023-05-12T23:40:04.809Z,38.25
2023-05-12T23:42:32.155Z,38.14
2023-05-12T23:44:58.627Z,38.38
2023-05-12T23:47:25.987Z,37.85
2023-05-12T23:49:53.383Z,38.25
2023-05-12T23:52:19.800Z,38.12
2023-05-12T23:54:46.252Z,38.14
2023-05-12T23:57:13.665Z,37.70
2023-05-12T23:59:40.113Z,38.65
